createdAt,value
2023-03-15T00:01:31.201Z,100865.41
2023-03-15T00:03:59.277Z,100863.41
2023-03-15T00:06:27.804Z,100856.38
2023-03-15T00:08:56.097Z,100867.28
2023-03-15T00:11:24.044Z,100874.66
2023-03-15T00:13:53.517Z,100876.06
2023-03-15T00:16:21.447Z,100882.66
2023-03-15T00:18:49.704Z,100894.03
2023-03-15T00:21:17.610Z,100895.91
2023-03-15T00:23:45.603Z,100898.88
2023-03-15T00:26:14.180Z,100905.94
2023-03-15T00:28:42.412Z,100898.75
2023-03-15T00:31:15.708Z,100908.16
2023-03-15T00:33:46.354Z,100913.81
2023-03-15T00:36:16.851Z,100922.34
2023-03-15T00:38:45.182Z,100930.88
2023-03-15T00:41:15.582Z,100937.25
2023-03-15T00:43:43.533Z,100937.25
2023-03-15T00:46:14.164Z,100928.34
2023-03-15T00:48:42.951Z,100938.59
2023-03-15T00:51:13.089Z,100941.03
2023-03-15T00:53:42.871Z,100946.38
2023-03-15T00:56:12.746Z,100954.19
2023-03-15T00:58:41.460Z,100963.09
2023-03-15T01:01:10.526Z,100985.06
2023-03-15T01:03:40.813Z,100982.56
2023-03-15T01:06:10.895Z,100981.06
2023-03-15T01:08:38.987Z,100975.28
2023-03-15T01:11:09.045Z,100978.69
2023-03-15T01:13:37.889Z,100981.06
2023-03-15T01:16:06.953Z,100984.84
2023-03-15T01:18:34.893Z,100983.72
2023-03-15T01:21:07.659Z,101000.00
2023-03-15T01:23:35.730Z,100998.78
2023-03-15T01:26:04.812Z,101007.66
2023-03-15T01:28:32.774Z,101003.28
2023-03-15T01:31:00.896Z,101007.22
2023-03-15T01:33:29.532Z,101010.09
2023-03-15T01:36:01.941Z,101010.47
2023-03-15T01:38:32.756Z,101007.38
2023-03-15T01:41:01.536Z,101015.94
2023-03-15T01:43:31.911Z,101022.53
2023-03-15T01:46:08.206Z,101038.50
2023-03-15T01:48:44.734Z,101039.19
2023-03-15T01:51:19.765Z,101042.47
2023-03-15T01:53:50.293Z,101043.97
2023-03-15T01:56:18.738Z,101039.63
2023-03-15T01:58:48.999Z,101044.34
2023-03-15T02:01:17.927Z,101044.69
2023-03-15T02:03:54.478Z,101052.06
2023-03-15T02:06:27.023Z,101046.81
2023-03-15T02:09:02.246Z,101058.94
2023-03-15T02:11:35.850Z,101058.81
2023-03-15T02:14:06.823Z,101059.59
2023-03-15T02:16:37.301Z,101062.16
2023-03-15T02:19:13.382Z,101072.38
2023-03-15T02:21:47.841Z,101070.63
2023-03-15T02:24:29.885Z,101084.78
2023-03-15T02:26:58.897Z,101095.00
2023-03-15T02:29:30.457Z,101097.22
2023-03-15T02:31:59.322Z,101100.00
2023-03-15T02:34:27.552Z,101109.69
2023-03-15T02:36:55.852Z,101114.91
2023-03-15T02:39:24.525Z,101120.72
2023-03-15T02:41:55.863Z,101112.50
2023-03-15T02:44:29.557Z,101121.63
2023-03-15T02:47:03.374Z,101118.31
2023-03-15T02:49:36.469Z,101122.09
2023-03-15T02:52:05.248Z,101129.72
2023-03-15T02:54:35.040Z,101114.47
2023-03-15T02:57:03.404Z,101124.94
2023-03-15T02:59:33.622Z,101123.81
2023-03-15T03:02:02.168Z,101127.38
2023-03-15T03:04:30.156Z,101123.09
2023-03-15T03:06:58.273Z,101134.41
2023-03-15T03:09:33.831Z,101142.97
2023-03-15T03:12:01.829Z,101151.22
2023-03-15T03:14:33.739Z,101151.34
2023-03-15T03:17:02.700Z,101164.47
2023-03-15T03:19:30.833Z,101173.19
2023-03-15T03:21:59.271Z,101169.03
2023-03-15T03:24:27.142Z,101177.63
2023-03-15T03:26:57.948Z,101179.56
2023-03-15T03:29:28.541Z,101174.31
2023-03-15T03:32:00.928Z,101177.88
2023-03-15T03:34:28.878Z,101182.88
2023-03-15T03:36:57.750Z,101185.59
2023-03-15T03:39:42.015Z,101197.13
2023-03-15T03:42:10.342Z,101204.25
2023-03-15T03:44:38.627Z,101210.50
2023-03-15T03:47:08.924Z,101227.81
2023-03-15T03:49:36.813Z,101238.13
2023-03-15T03:52:05.009Z,101228.06
2023-03-15T03:54:33.225Z,101240.97
2023-03-15T03:57:01.275Z,101241.06
2023-03-15T03:59:33.685Z,101243.28
2023-03-15T04:02:06.481Z,101250.66
2023-03-15T04:04:41.182Z,101253.38
2023-03-15T04:07:13.916Z,101263.69
2023-03-15T04:09:42.721Z,101262.81
2023-03-15T04:12:11.270Z,101265.78
2023-03-15T04:14:42.085Z,101275.72
2023-03-15T04:17:12.515Z,101279.53
2023-03-15T04:19:46.847Z,101267.63
2023-03-15T04:22:16.488Z,101290.47
2023-03-15T04:25:05.331Z,101292.66
2023-03-15T04:27:58.606Z,101302.81
2023-03-15T04:30:59.734Z,101304.19
2023-03-15T04:34:06.324Z,101309.75
2023-03-15T04:36:58.649Z,101317.84
2023-03-15T04:39:49.567Z,101319.69
2023-03-15T04:42:40.577Z,101318.47
2023-03-15T04:45:34.216Z,101322.16
2023-03-15T04:48:20.607Z,101311.84
2023-03-15T04:51:07.230Z,101313.56
2023-03-15T04:53:42.586Z,101320.41
2023-03-15T04:56:31.714Z,101319.19
2023-03-15T04:59:13.939Z,101322.97
2023-03-15T05:01:58.302Z,101319.44
2023-03-15T05:04:39.210Z,101324.47
2023-03-15T05:07:26.797Z,101327.28
2023-03-15T05:10:16.178Z,101331.97
2023-03-15T05:12:56.516Z,101328.50
2023-03-15T05:15:39.834Z,101332.56
2023-03-15T05:18:26.996Z,101335.47
2023-03-15T05:21:24.001Z,101335.34
2023-03-15T05:24:01.412Z,101337.50
2023-03-15T05:26:39.111Z,101344.38
2023-03-15T05:29:16.161Z,101356.53
2023-03-15T05:31:56.009Z,101354.97
2023-03-15T05:34:39.270Z,101359.53
2023-03-15T05:37:29.475Z,101367.97
2023-03-15T05:40:15.634Z,101364.34
2023-03-15T05:43:05.458Z,101371.81
2023-03-15T05:45:51.776Z,101375.91
2023-03-15T05:48:36.255Z,101386.28
2023-03-15T05:51:14.018Z,101398.31
2023-03-15T05:54:05.543Z,101409.69
2023-03-15T05:56:48.067Z,101411.19
2023-03-15T05:59:40.809Z,101423.63
2023-03-15T06:02:26.140Z,101433.47
2023-03-15T06:05:11.938Z,101442.31
2023-03-15T06:07:40.055Z,101440.59
2023-03-15T06:10:09.207Z,101444.47
2023-03-15T06:12:38.073Z,101442.34
2023-03-15T06:15:09.216Z,101443.44
2023-03-15T06:17:37.469Z,101441.81
2023-03-15T06:20:06.592Z,101450.75
2023-03-15T06:22:34.916Z,101449.25
2023-03-15T06:25:10.679Z,101450.09
2023-03-15T06:27:39.242Z,101451.38
2023-03-15T06:30:10.767Z,101452.16
2023-03-15T06:32:39.188Z,101459.56
2023-03-15T06:35:09.015Z,101463.88
2023-03-15T06:37:37.423Z,101461.53
2023-03-15T06:40:08.933Z,101465.31
2023-03-15T06:42:37.623Z,101459.06
2023-03-15T06:45:08.546Z,101471.88
2023-03-15T06:47:39.667Z,101468.00
2023-03-15T06:50:09.189Z,101469.84
2023-03-15T06:52:38.532Z,101475.88
2023-03-15T06:55:07.795Z,101480.19
2023-03-15T06:57:35.742Z,101485.69
2023-03-15T07:00:07.124Z,101489.66
2023-03-15T07:02:37.690Z,101494.09
2023-03-15T07:05:08.438Z,101487.97
2023-03-15T07:07:36.492Z,101495.59
2023-03-15T07:10:05.202Z,101494.31
2023-03-15T07:12:33.365Z,101503.84
2023-03-15T07:15:01.424Z,101507.91
2023-03-15T07:17:29.486Z,101501.00
2023-03-15T07:19:57.485Z,101515.00
2023-03-15T07:22:26.897Z,101516.94
2023-03-15T07:24:54.851Z,101535.16
2023-03-15T07:27:23.009Z,101534.41
2023-03-15T07:29:51.089Z,101537.13
2023-03-15T07:32:19.549Z,101536.03
2023-03-15T07:34:47.740Z,101537.13
2023-03-15T07:37:16.924Z,101538.50
2023-03-15T07:39:46.666Z,101543.75
2023-03-15T07:42:14.811Z,101546.88
2023-03-15T07:44:44.279Z,101568.28
2023-03-15T07:47:12.359Z,101555.19
2023-03-15T07:49:40.317Z,101563.06
2023-03-15T07:52:09.067Z,101553.88
2023-03-15T07:54:37.078Z,101567.81
2023-03-15T07:57:06.827Z,101580.16
2023-03-15T07:59:34.707Z,101579.56
2023-03-15T08:02:03.336Z,101582.84
2023-03-15T08:04:31.916Z,101575.94
2023-03-15T08:06:59.863Z,101595.03
2023-03-15T08:09:27.958Z,101593.00
2023-03-15T08:11:56.272Z,101586.41
2023-03-15T08:14:25.703Z,101606.81
2023-03-15T08:16:53.718Z,101600.97
2023-03-15T08:19:22.254Z,101609.59
2023-03-15T08:21:53.759Z,101602.28
2023-03-15T08:24:22.647Z,101603.91
2023-03-15T08:26:51.312Z,101608.28
2023-03-15T08:29:19.568Z,101617.28
2023-03-15T08:31:48.947Z,101614.59
2023-03-15T08:34:17.221Z,101623.84
2023-03-15T08:36:47.428Z,101622.13
2023-03-15T08:39:15.987Z,101630.13
2023-03-15T08:41:45.556Z,101630.06
2023-03-15T08:44:13.667Z,101633.53
2023-03-15T08:46:41.759Z,101641.69
2023-03-15T08:49:11.188Z,101631.28
2023-03-15T08:51:39.096Z,101635.47
2023-03-15T08:54:07.492Z,101643.41
2023-03-15T08:56:35.404Z,101651.03
2023-03-15T08:59:04.080Z,101642.00
2023-03-15T09:01:32.257Z,101639.44
2023-03-15T09:04:01.388Z,101646.69
2023-03-15T09:06:31.270Z,101651.94
2023-03-15T09:08:59.280Z,101652.44
2023-03-15T09:11:27.316Z,101657.75
2023-03-15T09:13:55.638Z,101654.72
2023-03-15T09:16:23.599Z,101656.41
2023-03-15T09:18:51.994Z,101656.00
2023-03-15T09:21:19.943Z,101646.47
2023-03-15T09:23:49.410Z,101650.94
2023-03-15T09:26:17.732Z,101650.97
2023-03-15T09:28:46.378Z,101652.63
2023-03-15T09:31:14.657Z,101642.38
2023-03-15T09:33:46.509Z,101642.00
2023-03-15T09:36:14.581Z,101645.28
2023-03-15T09:38:44.070Z,101648.31
2023-03-15T09:41:20.789Z,101654.50
2023-03-15T09:44:03.967Z,101653.50
2023-03-15T09:46:35.018Z,101654.56
2023-03-15T09:49:10.835Z,101660.22
2023-03-15T09:51:43.014Z,101661.56
2023-03-15T09:54:14.410Z,101681.94
2023-03-15T09:56:51.596Z,101677.97
2023-03-15T09:59:23.076Z,101672.25
2023-03-15T10:01:54.375Z,101688.47
2023-03-15T10:04:28.592Z,101674.47
2023-03-15T10:06:58.894Z,101672.56
2023-03-15T10:09:33.050Z,101686.59
2023-03-15T10:12:07.484Z,101674.22
2023-03-15T10:14:58.245Z,101677.72
2023-03-15T10:17:36.414Z,101692.25
2023-03-15T10:20:09.667Z,101695.28
2023-03-15T10:22:44.059Z,101690.34
2023-03-15T10:25:16.666Z,101691.09
2023-03-15T10:27:50.959Z,101706.41
2023-03-15T10:30:22.665Z,101695.03
2023-03-15T10:32:54.723Z,101703.03
2023-03-15T10:35:23.150Z,101707.25
2023-03-15T10:37:51.611Z,101716.19
2023-03-15T10:40:41.156Z,101707.28
2023-03-15T10:43:19.186Z,101708.44
2023-03-15T10:46:00.801Z,101722.25
2023-03-15T10:48:30.221Z,101715.63
2023-03-15T10:50:59.413Z,101720.28
2023-03-15T10:53:27.701Z,101725.41
2023-03-15T10:56:01.943Z,101722.31
2023-03-15T10:58:42.227Z,101734.09
2023-03-15T11:01:23.130Z,101727.59
2023-03-15T11:04:03.117Z,101730.03
2023-03-15T11:06:41.544Z,101738.78
2023-03-15T11:09:11.752Z,101725.47
2023-03-15T11:11:54.844Z,101731.75
2023-03-15T11:14:24.888Z,101733.75
2023-03-15T11:16:55.161Z,101748.56
2023-03-15T11:19:26.845Z,101740.94
2023-03-15T11:21:56.036Z,101751.13
2023-03-15T11:24:27.472Z,101744.50
2023-03-15T11:26:57.072Z,101743.59
2023-03-15T11:29:32.633Z,101750.72
2023-03-15T11:32:02.636Z,101753.72
2023-03-15T11:34:41.597Z,101753.84
2023-03-15T11:37:16.886Z,101753.75
2023-03-15T11:39:53.774Z,101752.84
2023-03-15T11:42:29.230Z,101749.91
2023-03-15T11:45:04.077Z,101758.75
2023-03-15T11:47:40.971Z,101758.03
2023-03-15T11:50:14.672Z,101759.69
2023-03-15T11:52:43.394Z,101755.41
2023-03-15T11:55:18.159Z,101749.81
2023-03-15T11:57:47.841Z,101752.28
2023-03-15T12:00:35.814Z,101748.50
2023-03-15T12:03:27.050Z,101747.78
2023-03-15T12:06:02.237Z,101751.59
2023-03-15T12:08:43.953Z,101746.59
2023-03-15T12:11:13.431Z,101752.78
2023-03-15T12:13:53.920Z,101759.16
2023-03-15T12:16:26.857Z,101753.50
2023-03-15T12:18:58.444Z,101755.06
2023-03-15T12:21:33.613Z,101753.41
2023-03-15T12:24:05.270Z,101757.59
2023-03-15T12:26:41.252Z,101767.13
2023-03-15T12:29:19.393Z,101758.75
2023-03-15T12:32:05.505Z,101751.84
2023-03-15T12:34:45.022Z,101756.19
2023-03-15T12:37:18.010Z,101754.53
2023-03-15T12:39:50.595Z,101755.69
2023-03-15T12:43:01.192Z,101760.47
2023-03-15T12:45:53.025Z,101754.09
2023-03-15T12:48:32.407Z,101744.69
2023-03-15T12:51:06.324Z,101755.66
2023-03-15T12:53:46.038Z,101753.84
2023-03-15T12:56:32.630Z,101750.94
2023-03-15T12:59:06.991Z,101754.97
2023-03-15T13:01:35.749Z,101753.19
2023-03-15T13:04:05.712Z,101761.31
2023-03-15T13:06:44.563Z,101762.75
2023-03-15T13:09:23.190Z,101762.78
2023-03-15T13:11:57.219Z,101765.72
2023-03-15T13:14:37.467Z,101767.75
2023-03-15T13:17:17.105Z,101768.03
2023-03-15T13:19:51.560Z,101777.47
2023-03-15T13:22:29.491Z,101768.91
2023-03-15T13:25:05.084Z,101769.22
2023-03-15T13:27:46.326Z,101762.69
2023-03-15T13:30:33.881Z,101770.53
2023-03-15T13:33:21.596Z,101790.44
2023-03-15T13:35:57.637Z,101777.63
2023-03-15T13:38:32.010Z,101777.03
2023-03-15T13:41:03.809Z,101779.75
2023-03-15T13:43:34.312Z,101775.09
2023-03-15T13:46:02.636Z,101781.28
2023-03-15T13:48:32.266Z,101772.63
2023-03-15T13:51:06.450Z,101774.53
2023-03-15T13:53:48.924Z,101780.66
2023-03-15T13:56:20.734Z,101780.47
2023-03-15T13:58:51.998Z,101783.66
2023-03-15T14:01:23.196Z,101778.16
2023-03-15T14:03:58.176Z,101769.41
2023-03-15T14:06:29.012Z,101765.81
2023-03-15T14:09:02.410Z,101772.03
2023-03-15T14:11:37.121Z,101780.66
2023-03-15T14:14:23.285Z,101771.97
2023-03-15T14:17:04.290Z,101777.78
2023-03-15T14:19:35.467Z,101767.69
2023-03-15T14:22:13.941Z,101778.31
2023-03-15T14:24:43.893Z,101780.88
2023-03-15T14:27:17.356Z,101776.69
2023-03-15T14:29:48.703Z,101779.13
2023-03-15T14:32:26.612Z,101775.84
2023-03-15T14:35:04.971Z,101768.56
2023-03-15T14:37:38.608Z,101775.16
2023-03-15T14:40:16.557Z,101775.84
2023-03-15T14:42:46.259Z,101787.59
2023-03-15T14:45:15.330Z,101786.69
2023-03-15T14:47:56.336Z,101781.84
2023-03-15T14:50:28.018Z,101787.06
2023-03-15T14:52:59.158Z,101793.59
2023-03-15T14:55:33.415Z,101786.03
2023-03-15T14:58:02.107Z,101785.00
2023-03-15T15:00:31.239Z,101797.19
2023-03-15T15:03:00.216Z,101791.28
2023-03-15T15:05:36.515Z,101797.41
2023-03-15T15:08:12.849Z,101803.84
2023-03-15T15:10:42.008Z,101798.91
2023-03-15T15:13:22.015Z,101800.16
2023-03-15T15:15:56.093Z,101791.66
2023-03-15T15:18:26.555Z,101800.28
2023-03-15T15:20:56.113Z,101795.34
2023-03-15T15:23:29.209Z,101796.75
2023-03-15T15:25:59.881Z,101800.06
2023-03-15T15:28:37.670Z,101794.03
2023-03-15T15:31:07.443Z,101774.13
2023-03-15T15:33:36.139Z,101774.47
2023-03-15T15:36:04.658Z,101792.47
2023-03-15T15:38:38.764Z,101790.16
2023-03-15T15:41:12.470Z,101795.56
2023-03-15T15:43:40.497Z,101789.53
2023-03-15T15:46:11.272Z,101781.38
2023-03-15T15:48:40.295Z,101783.59
2023-03-15T15:51:26.923Z,101779.53
2023-03-15T15:53:59.088Z,101780.66
2023-03-15T15:56:32.995Z,101783.72
2023-03-15T15:59:03.107Z,101785.88
2023-03-15T16:01:31.627Z,101788.69
2023-03-15T16:04:00.052Z,101795.44
2023-03-15T16:06:28.294Z,101786.13
2023-03-15T16:08:58.177Z,101798.41
2023-03-15T16:11:26.625Z,101792.41
2023-03-15T16:13:55.025Z,101792.84
2023-03-15T16:16:23.282Z,101803.00
2023-03-15T16:18:51.368Z,101795.56
2023-03-15T16:21:27.839Z,101800.28
2023-03-15T16:24:00.545Z,101791.50
2023-03-15T16:26:29.092Z,101798.44
2023-03-15T16:28:56.989Z,101799.66
2023-03-15T16:31:24.996Z,101807.47
2023-03-15T16:33:52.907Z,101809.25
2023-03-15T16:36:23.506Z,101810.44
2023-03-15T16:38:51.613Z,101813.00
2023-03-15T16:41:20.861Z,101816.53
2023-03-15T16:43:49.517Z,101817.50
2023-03-15T16:46:18.888Z,101819.81
2023-03-15T16:48:47.066Z,101813.06
2023-03-15T16:51:17.373Z,101825.06
2023-03-15T16:53:45.531Z,101825.56
2023-03-15T16:56:15.624Z,101827.84
2023-03-15T16:58:45.977Z,101833.34
2023-03-15T17:01:14.186Z,101839.53
2023-03-15T17:03:42.734Z,101826.56
2023-03-15T17:06:20.387Z,101835.28
2023-03-15T17:08:49.941Z,101828.22
2023-03-15T17:11:19.419Z,101831.75
2023-03-15T17:13:49.043Z,101829.19
2023-03-15T17:16:17.253Z,101830.13
2023-03-15T17:18:47.741Z,101828.84
2023-03-15T17:21:17.950Z,101827.47
2023-03-15T17:23:46.521Z,101829.69
2023-03-15T17:26:15.940Z,101835.56
2023-03-15T17:28:44.316Z,101838.13
2023-03-15T17:31:25.431Z,101836.03
2023-03-15T17:33:54.812Z,101835.44
2023-03-15T17:36:25.425Z,101826.56
2023-03-15T17:38:54.973Z,101832.78
2023-03-15T17:41:26.564Z,101831.38
2023-03-15T17:43:54.779Z,101826.50
2023-03-15T17:46:30.036Z,101829.38
2023-03-15T17:48:58.538Z,101840.94
2023-03-15T17:51:28.818Z,101832.63
2023-03-15T17:53:57.716Z,101843.78
2023-03-15T17:56:26.074Z,101846.06
2023-03-15T17:58:54.749Z,101845.09
2023-03-15T18:01:27.421Z,101852.63
2023-03-15T18:03:56.113Z,101855.22
2023-03-15T18:06:24.667Z,101857.69
2023-03-15T18:08:52.655Z,101860.13
2023-03-15T18:11:25.493Z,101851.88
2023-03-15T18:13:54.524Z,101858.72
2023-03-15T18:16:24.227Z,101861.78
2023-03-15T18:18:52.476Z,101857.97
2023-03-15T18:21:23.640Z,101860.78
2023-03-15T18:23:52.191Z,101861.00
2023-03-15T18:26:21.332Z,101869.00
2023-03-15T18:28:49.408Z,101863.03
2023-03-15T18:31:19.502Z,101865.91
2023-03-15T18:33:49.731Z,101875.66
2023-03-15T18:36:18.073Z,101868.75
2023-03-15T18:38:46.577Z,101868.03
2023-03-15T18:41:20.322Z,101872.72
2023-03-15T18:43:50.422Z,101872.38
2023-03-15T18:46:19.619Z,101874.66
2023-03-15T18:48:49.922Z,101877.75
2023-03-15T18:51:18.662Z,101868.22
2023-03-15T18:53:47.292Z,101873.66
2023-03-15T18:56:19.300Z,101868.94
2023-03-15T18:58:47.754Z,101872.53
2023-03-15T19:01:15.863Z,101870.69
2023-03-15T19:03:44.482Z,101875.97
2023-03-15T19:06:14.551Z,101875.97
2023-03-15T19:08:42.725Z,101873.72
2023-03-15T19:11:11.542Z,101871.28
2023-03-15T19:13:39.505Z,101871.00
2023-03-15T19:16:08.090Z,101875.38
2023-03-15T19:18:42.643Z,101869.81
2023-03-15T19:21:11.236Z,101869.75
2023-03-15T19:23:40.432Z,101875.91
2023-03-15T19:26:09.236Z,101875.19
2023-03-15T19:28:37.252Z,101875.84
2023-03-15T19:31:05.560Z,101877.03
2023-03-15T19:33:34.510Z,101879.16
2023-03-15T19:36:02.636Z,101884.97
2023-03-15T19:38:30.635Z,101880.06
2023-03-15T19:41:03.780Z,101890.31
2023-03-15T19:43:32.553Z,101889.00
2023-03-15T19:46:01.315Z,101883.94
2023-03-15T19:48:29.474Z,101890.16
2023-03-15T19:50:57.925Z,101890.81
2023-03-15T19:53:26.005Z,101893.31
2023-03-15T19:55:54.076Z,101882.28
2023-03-15T19:58:23.577Z,101886.47
2023-03-15T20:00:54.635Z,101887.81
2023-03-15T20:03:22.872Z,101880.41
2023-03-15T20:05:50.893Z,101884.97
2023-03-15T20:08:19.688Z,101888.44
2023-03-15T20:10:48.548Z,101882.50
2023-03-15T20:13:16.515Z,101884.09
2023-03-15T20:15:46.336Z,101881.91
2023-03-15T20:18:16.092Z,101890.00
2023-03-15T20:20:44.242Z,101881.25
2023-03-15T20:23:12.309Z,101878.03
2023-03-15T20:25:40.333Z,101880.50
2023-03-15T20:28:08.161Z,101878.97
2023-03-15T20:30:36.296Z,101879.84
2023-03-15T20:33:06.151Z,101884.88
2023-03-15T20:35:34.434Z,101879.84
2023-03-15T20:38:06.650Z,101876.44
2023-03-15T20:40:35.291Z,101878.19
2023-03-15T20:43:03.484Z,101874.59
2023-03-15T20:45:33.245Z,101875.38
2023-03-15T20:48:01.439Z,101873.25
2023-03-15T20:50:31.329Z,101873.50
2023-03-15T20:52:59.224Z,101875.25
2023-03-15T20:55:27.991Z,101877.31
2023-03-15T20:57:56.228Z,101882.25
2023-03-15T21:00:25.168Z,101875.69
2023-03-15T21:02:53.946Z,101873.19
2023-03-15T21:05:22.708Z,101874.06
2023-03-15T21:07:52.107Z,101865.97
2023-03-15T21:10:21.119Z,101872.03
2023-03-15T21:12:49.336Z,101858.59
2023-03-15T21:15:18.945Z,101862.31
2023-03-15T21:17:49.118Z,101861.06
2023-03-15T21:20:17.348Z,101860.56
2023-03-15T21:22:45.337Z,101861.34
2023-03-15T21:25:14.660Z,101861.66
2023-03-15T21:27:42.564Z,101859.56
2023-03-15T21:30:13.913Z,101860.31
2023-03-15T21:32:42.784Z,101856.25
2023-03-15T21:35:11.647Z,101853.91
2023-03-15T21:37:41.194Z,101851.81
2023-03-15T21:40:10.740Z,101850.81
2023-03-15T21:42:40.608Z,101840.47
2023-03-15T21:45:09.986Z,101848.22
2023-03-15T21:47:37.966Z,101843.25
2023-03-15T21:50:07.031Z,101838.78
2023-03-15T21:52:34.924Z,101829.72
2023-03-15T21:55:03.443Z,101838.84
2023-03-15T21:57:33.640Z,101836.28
2023-03-15T22:00:05.367Z,101839.84
2023-03-15T22:02:39.845Z,101847.25
2023-03-15T22:05:07.960Z,101840.47
2023-03-15T22:07:35.857Z,101842.69
2023-03-15T22:10:04.033Z,101843.28
2023-03-15T22:12:31.989Z,101841.88
2023-03-15T22:15:05.782Z,101837.22
2023-03-15T22:17:35.478Z,101833.84
2023-03-15T22:20:07.834Z,101831.38
2023-03-15T22:22:35.683Z,101835.16
2023-03-15T22:25:03.687Z,101826.91
2023-03-15T22:27:31.635Z,101830.63
2023-03-15T22:29:59.451Z,101823.59
2023-03-15T22:32:27.324Z,101816.31
2023-03-15T22:34:56.794Z,101820.44
2023-03-15T22:37:25.095Z,101823.88
2023-03-15T22:39:53.077Z,101832.06
2023-03-15T22:42:21.187Z,101828.81
2023-03-15T22:44:49.607Z,101825.19
2023-03-15T22:47:17.850Z,101820.66
2023-03-15T22:49:45.635Z,101821.47
2023-03-15T22:52:14.969Z,101820.91
2023-03-15T22:54:43.680Z,101827.06
2023-03-15T22:57:11.979Z,101821.75
2023-03-15T22:59:40.237Z,101823.06
2023-03-15T23:02:09.061Z,101823.78
2023-03-15T23:04:37.084Z,101829.63
2023-03-15T23:07:05.137Z,101830.59
2023-03-15T23:09:34.378Z,101824.94
2023-03-15T23:12:03.456Z,101826.41
2023-03-15T23:14:32.011Z,101825.56
2023-03-15T23:17:03.297Z,101823.09
2023-03-15T23:19:33.985Z,101823.50
2023-03-15T23:22:04.055Z,101816.69
2023-03-15T23:24:33.847Z,101816.91
2023-03-15T23:27:04.584Z,101821.78
2023-03-15T23:29:40.693Z,101826.13
2023-03-15T23:32:15.228Z,101821.78
2023-03-15T23:34:43.302Z,101827.16
2023-03-15T23:37:11.540Z,101824.78
2023-03-15T23:39:39.629Z,101836.53
2023-03-15T23:42:09.445Z,101821.78
2023-03-15T23:44:37.694Z,101831.91
2023-03-15T23:47:06.563Z,101820.66
2023-03-15T23:49:35.096Z,101822.09
2023-03-15T23:52:05.688Z,101821.84
2023-03-15T23:54:39.282Z,101817.94
2023-03-15T23:57:07.896Z,101815.47
2023-03-15T23:59:37.673Z,101810.56
